createdAt,value
2023-03-01T00:01:23.439Z,29.20
2023-03-01T00:03:51.057Z,34.53
2023-03-01T00:06:19.047Z,31.00
2023-03-01T00:08:46.527Z,34.00
2023-03-01T00:11:18.657Z,38.17
2023-03-01T00:13:46.690Z,40.30
2023-03-01T00:16:23.621Z,39.03
2023-03-01T00:18:54.072Z,39.17
2023-03-01T00:21:22.908Z,39.15
2023-03-01T00:23:51.079Z,36.20
2023-03-01T00:26:19.189Z,36.17
2023-03-01T00:28:46.663Z,39.00
2023-03-01T00:31:16.283Z,36.28
2023-03-01T00:33:43.923Z,40.05
2023-03-01T00:36:12.459Z,40.50
2023-03-01T00:38:42.467Z,40.83
2023-03-01T00:41:12.603Z,43.45
2023-03-01T00:43:39.792Z,40.08
2023-03-01T00:46:10.699Z,42.53
2023-03-01T00:48:38.572Z,45.03
2023-03-01T00:51:19.338Z,39.95
2023-03-01T00:53:47.312Z,44.20
2023-03-01T00:56:15.960Z,41.63
2023-03-01T00:58:43.384Z,43.55
2023-03-01T01:01:19.500Z,45.58
2023-03-01T01:03:55.536Z,45.17
2023-03-01T01:06:25.428Z,43.55
2023-03-01T01:08:53.782Z,44.38
2023-03-01T01:11:22.322Z,42.75
2023-03-01T01:13:50.643Z,45.25
2023-03-01T01:16:20.162Z,43.22
2023-03-01T01:18:47.464Z,43.78
2023-03-01T01:21:17.572Z,48.75
2023-03-01T01:23:46.015Z,45.00
2023-03-01T01:26:29.113Z,43.42
2023-03-01T01:28:59.678Z,46.28
2023-03-01T01:31:28.553Z,42.63
2023-03-01T01:33:56.410Z,45.60
2023-03-01T01:36:25.537Z,46.20
2023-03-01T01:38:52.900Z,44.83
2023-03-01T01:41:20.784Z,45.20
2023-03-01T01:44:15.093Z,45.45
2023-03-01T01:46:48.366Z,43.50
2023-03-01T01:49:26.360Z,43.35
2023-03-01T01:52:00.138Z,46.83
2023-03-01T01:54:32.494Z,44.80
2023-03-01T01:57:08.732Z,46.03
2023-03-01T01:59:35.988Z,46.58
2023-03-01T02:02:05.496Z,45.72
2023-03-01T02:04:34.102Z,47.95
2023-03-01T02:07:24.083Z,45.50
2023-03-01T02:09:53.579Z,42.97
2023-03-01T02:12:25.791Z,44.08
2023-03-01T02:14:53.024Z,47.00
2023-03-01T02:17:20.557Z,48.40
2023-03-01T02:20:00.226Z,46.88
2023-03-01T02:22:31.690Z,44.85
2023-03-01T02:25:13.715Z,50.40
2023-03-01T02:28:14.706Z,46.83
2023-03-01T02:31:03.254Z,45.03
2023-03-01T02:33:37.526Z,46.20
2023-03-01T02:36:18.695Z,48.40
2023-03-01T02:38:46.567Z,47.25
2023-03-01T02:41:17.240Z,52.35
2023-03-01T02:43:44.423Z,50.25
2023-03-01T02:46:18.346Z,52.28
2023-03-01T02:48:50.955Z,52.70
2023-03-01T02:51:48.892Z,52.83
2023-03-01T02:54:22.131Z,46.58
2023-03-01T02:56:49.965Z,47.97
2023-03-01T02:59:21.130Z,47.42
2023-03-01T03:01:48.450Z,50.13
2023-03-01T03:04:23.410Z,48.92
2023-03-01T03:06:52.107Z,48.38
2023-03-01T03:09:20.026Z,51.10
2023-03-01T03:11:47.802Z,51.60
2023-03-01T03:14:16.278Z,48.00
2023-03-01T03:16:45.173Z,51.17
2023-03-01T03:19:13.551Z,49.90
2023-03-01T03:21:40.459Z,48.75
2023-03-01T03:24:07.344Z,48.47
2023-03-01T03:26:34.511Z,51.67
2023-03-01T03:29:01.936Z,52.00
2023-03-01T03:31:29.440Z,47.60
2023-03-01T03:33:56.344Z,50.78
2023-03-01T03:36:25.831Z,49.90
2023-03-01T03:38:52.993Z,50.05
2023-03-01T03:41:19.877Z,52.38
2023-03-01T03:43:47.070Z,48.65
2023-03-01T03:46:14.303Z,50.85
2023-03-01T03:48:45.397Z,51.55
2023-03-01T03:51:15.164Z,51.78
2023-03-01T03:53:45.109Z,54.17
2023-03-01T03:56:12.735Z,50.83
2023-03-01T03:58:39.690Z,51.85
2023-03-01T04:01:07.463Z,51.10
2023-03-01T04:03:36.404Z,50.63
2023-03-01T04:06:03.993Z,52.25
2023-03-01T04:08:30.948Z,51.72
2023-03-01T04:11:21.498Z,54.92
2023-03-01T04:13:48.837Z,53.15
2023-03-01T04:16:16.641Z,50.47
2023-03-01T04:18:43.695Z,52.85
2023-03-01T04:21:12.255Z,57.00
2023-03-01T04:23:39.115Z,52.72
2023-03-01T04:26:06.290Z,53.58
2023-03-01T04:28:35.962Z,55.08
2023-03-01T04:31:14.334Z,53.90
2023-03-01T04:33:48.924Z,56.15
2023-03-01T04:36:17.713Z,51.70
2023-03-01T04:38:48.756Z,49.60
2023-03-01T04:41:18.389Z,56.40
2023-03-01T04:43:45.334Z,55.42
2023-03-01T04:46:18.115Z,54.60
2023-03-01T04:48:46.177Z,49.22
2023-03-01T04:51:14.975Z,54.45
2023-03-01T04:53:43.301Z,55.05
2023-03-01T04:56:10.437Z,52.08
2023-03-01T04:58:38.219Z,59.90
2023-03-01T05:01:17.130Z,55.05
2023-03-01T05:03:53.731Z,54.17
2023-03-01T05:06:21.620Z,53.03
2023-03-01T05:08:49.056Z,56.97
2023-03-01T05:11:15.833Z,56.17
2023-03-01T05:13:43.113Z,57.03
2023-03-01T05:16:13.599Z,58.70
2023-03-01T05:18:41.395Z,55.03
2023-03-01T05:21:11.993Z,55.40
2023-03-01T05:23:39.112Z,52.42
2023-03-01T05:26:13.544Z,53.03
2023-03-01T05:28:49.560Z,55.95
2023-03-01T05:31:16.819Z,56.55
2023-03-01T05:33:44.870Z,55.40
2023-03-01T05:36:12.265Z,54.78
2023-03-01T05:38:39.612Z,53.00
2023-03-01T05:41:06.485Z,57.70
2023-03-01T05:43:34.999Z,52.20
2023-03-01T05:46:02.312Z,56.92
2023-03-01T05:48:29.085Z,55.92
2023-03-01T05:50:56.262Z,53.95
2023-03-01T05:53:23.036Z,58.20
2023-03-01T05:55:50.879Z,55.67
2023-03-01T05:58:20.001Z,56.50
2023-03-01T06:00:48.839Z,56.70
2023-03-01T06:03:18.036Z,56.45
2023-03-01T06:05:45.343Z,57.95
2023-03-01T06:08:13.390Z,56.65
2023-03-01T06:10:40.383Z,59.90
2023-03-01T06:13:07.870Z,60.95
2023-03-01T06:15:34.768Z,57.17
2023-03-01T06:18:02.156Z,56.47
2023-03-01T06:20:29.923Z,55.53
2023-03-01T06:22:57.522Z,59.55
2023-03-01T06:25:27.248Z,59.45
2023-03-01T06:27:54.229Z,59.65
2023-03-01T06:30:23.223Z,67.25
2023-03-01T06:32:50.471Z,62.22
2023-03-01T06:35:19.428Z,42.83
2023-03-01T06:37:48.432Z,43.60
2023-03-01T06:40:16.304Z,37.22
2023-03-01T06:42:49.013Z,40.90
2023-03-01T06:45:16.673Z,43.45
2023-03-01T06:47:43.773Z,40.90
2023-03-01T06:50:11.941Z,41.35
2023-03-01T06:52:39.305Z,46.30
2023-03-01T06:55:07.427Z,40.97
2023-03-01T06:57:34.286Z,41.17
2023-03-01T07:00:01.538Z,40.17
2023-03-01T07:02:28.744Z,36.75
2023-03-01T07:04:56.851Z,35.50
2023-03-01T07:07:24.095Z,38.55
2023-03-01T07:09:51.043Z,39.55
2023-03-01T07:12:17.945Z,40.22
2023-03-01T07:14:46.124Z,38.95
2023-03-01T07:17:13.308Z,35.78
2023-03-01T07:19:40.174Z,30.77
2023-03-01T07:22:08.901Z,32.53
2023-03-01T07:24:36.144Z,29.58
2023-03-01T07:27:03.030Z,31.27
2023-03-01T07:29:29.951Z,31.13
2023-03-01T07:31:56.833Z,30.02
2023-03-01T07:34:24.046Z,32.08
2023-03-01T07:36:50.975Z,30.88
2023-03-01T07:39:19.438Z,29.27
2023-03-01T07:41:46.648Z,30.20
2023-03-01T07:44:13.873Z,30.40
2023-03-01T07:46:40.620Z,29.92
2023-03-01T07:49:07.410Z,28.02
2023-03-01T07:51:34.208Z,28.77
2023-03-01T07:54:01.224Z,31.20
2023-03-01T07:56:27.982Z,30.85
2023-03-01T07:58:55.183Z,30.00
2023-03-01T08:01:25.230Z,29.42
2023-03-01T08:03:52.447Z,26.53
2023-03-01T08:06:19.884Z,24.33
2023-03-01T08:08:46.930Z,24.67
2023-03-01T08:11:15.960Z,31.30
2023-03-01T08:13:43.828Z,27.97
2023-03-01T08:16:17.530Z,28.00
2023-03-01T08:18:44.956Z,32.83
2023-03-01T08:21:17.174Z,26.03
2023-03-01T08:23:44.536Z,22.80
2023-03-01T08:26:19.526Z,22.73
2023-03-01T08:28:47.176Z,23.43
2023-03-01T08:31:29.646Z,22.97
2023-03-01T08:33:58.926Z,21.90
2023-03-01T08:36:28.100Z,24.90
2023-03-01T08:38:55.636Z,20.03
2023-03-01T08:41:22.805Z,20.50
2023-03-01T08:43:50.209Z,18.47
2023-03-01T08:46:17.093Z,17.47
2023-03-01T08:48:44.624Z,20.10
2023-03-01T08:51:14.862Z,20.03
2023-03-01T08:53:42.365Z,20.08
2023-03-01T08:56:10.769Z,18.50
2023-03-01T08:58:38.372Z,17.45
2023-03-01T09:01:09.390Z,16.73
2023-03-01T09:03:36.635Z,15.50
2023-03-01T09:06:04.788Z,15.00
2023-03-01T09:08:34.539Z,15.90
2023-03-01T09:11:04.460Z,16.23
2023-03-01T09:13:33.931Z,18.42
2023-03-01T09:16:03.636Z,18.00
2023-03-01T09:18:30.653Z,20.52
2023-03-01T09:21:13.499Z,20.27
2023-03-01T09:23:45.544Z,18.95
2023-03-01T09:26:23.464Z,19.35
2023-03-01T09:28:52.501Z,18.27
2023-03-01T09:31:21.457Z,19.50
2023-03-01T09:33:51.094Z,20.10
2023-03-01T09:36:20.465Z,18.10
2023-03-01T09:38:48.474Z,19.00
2023-03-01T09:41:43.594Z,20.70
2023-03-01T09:44:19.656Z,19.48
2023-03-01T09:46:47.486Z,21.30
2023-03-01T09:49:21.908Z,18.90
2023-03-01T09:52:00.011Z,19.33
2023-03-01T09:54:27.271Z,21.60
2023-03-01T09:57:13.307Z,22.35
2023-03-01T10:00:09.173Z,22.13
2023-03-01T10:03:05.609Z,21.20
2023-03-01T10:05:37.320Z,22.45
2023-03-01T10:08:09.607Z,21.65
2023-03-01T10:10:41.762Z,18.45
2023-03-01T10:13:20.708Z,19.38
2023-03-01T10:15:56.857Z,21.20
2023-03-01T10:18:28.812Z,19.20
2023-03-01T10:21:04.802Z,19.38
2023-03-01T10:23:34.593Z,17.90
2023-03-01T10:26:21.054Z,17.80
2023-03-01T10:29:10.246Z,20.25
2023-03-01T10:31:49.591Z,19.83
2023-03-01T10:34:19.514Z,18.85
2023-03-01T10:36:51.050Z,18.85
2023-03-01T10:39:23.502Z,18.95
2023-03-01T10:41:59.860Z,20.20
2023-03-01T10:44:47.681Z,21.98
2023-03-01T10:47:34.197Z,19.00
2023-03-01T10:50:04.874Z,18.83
2023-03-01T10:52:35.793Z,17.98
2023-03-01T10:55:13.488Z,19.15
2023-03-01T10:57:43.970Z,20.08
2023-03-01T11:00:24.370Z,19.02
2023-03-01T11:03:03.982Z,19.73
2023-03-01T11:05:31.534Z,18.10
2023-03-01T11:08:00.144Z,18.42
2023-03-01T11:10:31.164Z,14.80
2023-03-01T11:13:18.247Z,17.58
2023-03-01T11:16:01.196Z,16.80
2023-03-01T11:18:45.907Z,17.60
2023-03-01T11:21:13.924Z,18.80
2023-03-01T11:23:42.114Z,15.40
2023-03-01T11:26:12.416Z,15.50
2023-03-01T11:28:43.176Z,14.82
2023-03-01T11:31:13.697Z,13.13
2023-03-01T11:34:00.996Z,13.95
2023-03-01T11:36:39.648Z,15.18
2023-03-01T11:39:29.498Z,14.55
2023-03-01T11:42:19.311Z,13.00
2023-03-01T11:44:49.694Z,14.80
2023-03-01T11:47:27.136Z,14.90
2023-03-01T11:50:22.198Z,13.13
2023-03-01T11:53:19.244Z,12.60
2023-03-01T11:55:49.237Z,13.43
2023-03-01T11:59:09.781Z,12.55
2023-03-01T12:01:48.844Z,13.20
2023-03-01T12:04:34.659Z,14.60
2023-03-01T12:07:16.116Z,13.93
2023-03-01T12:10:05.976Z,14.32
2023-03-01T12:12:50.158Z,14.55
2023-03-01T12:15:33.011Z,14.82
2023-03-01T12:18:27.662Z,12.55
2023-03-01T12:21:25.592Z,13.85
2023-03-01T12:24:32.348Z,14.63
2023-03-01T12:26:59.080Z,14.85
2023-03-01T12:29:59.333Z,12.43
2023-03-01T12:32:40.379Z,14.50
2023-03-01T12:35:13.711Z,14.70
2023-03-01T12:37:44.063Z,12.93
2023-03-01T12:40:34.533Z,12.45
2023-03-01T12:43:09.870Z,13.43
2023-03-01T12:45:52.227Z,10.98
2023-03-01T12:48:26.898Z,13.15
2023-03-01T12:50:58.574Z,12.45
2023-03-01T12:53:28.621Z,14.40
2023-03-01T12:56:01.217Z,13.90
2023-03-01T12:58:49.712Z,12.85
2023-03-01T13:01:31.500Z,14.35
2023-03-01T13:04:12.238Z,15.15
2023-03-01T13:07:01.518Z,11.73
2023-03-01T13:10:02.437Z,12.65
2023-03-01T13:12:58.328Z,13.95
2023-03-01T13:15:25.100Z,11.63
2023-03-01T13:17:59.909Z,11.40
2023-03-01T13:20:45.733Z,12.57
2023-03-01T13:23:27.604Z,10.98
2023-03-01T13:26:03.363Z,9.70
2023-03-01T13:28:38.726Z,10.88
2023-03-01T13:31:08.103Z,7.50
2023-03-01T13:33:47.516Z,7.35
2023-03-01T13:36:30.649Z,8.32
2023-03-01T13:39:01.037Z,7.07
2023-03-01T13:41:40.467Z,6.82
2023-03-01T13:44:43.781Z,4.72
2023-03-01T13:47:13.749Z,5.60
2023-03-01T13:49:51.802Z,7.07
2023-03-01T13:52:44.797Z,6.85
2023-03-01T13:55:24.633Z,7.07
2023-03-01T13:57:56.523Z,7.05
2023-03-01T14:00:41.057Z,8.18
2023-03-01T14:03:14.524Z,8.65
2023-03-01T14:05:43.892Z,9.27
2023-03-01T14:08:25.484Z,9.27
2023-03-01T14:11:01.872Z,6.95
2023-03-01T14:13:49.180Z,8.13
2023-03-01T14:16:45.977Z,7.65
2023-03-01T14:19:33.649Z,7.63
2023-03-01T14:22:28.370Z,5.80
2023-03-01T14:25:05.823Z,7.93
2023-03-01T14:27:43.173Z,7.15
2023-03-01T14:30:20.198Z,8.68
2023-03-01T14:32:58.940Z,5.78
2023-03-01T14:35:34.849Z,6.50
2023-03-01T14:38:02.327Z,7.22
2023-03-01T14:40:36.246Z,7.97
2023-03-01T14:43:11.452Z,6.00
2023-03-01T14:45:38.708Z,7.47
2023-03-01T14:48:08.030Z,8.05
2023-03-01T14:50:41.265Z,7.30
2023-03-01T14:53:16.434Z,7.80
2023-03-01T14:55:47.579Z,8.70
2023-03-01T14:58:16.921Z,10.35
2023-03-01T15:00:56.125Z,8.85
2023-03-01T15:03:41.346Z,9.15
2023-03-01T15:06:09.683Z,7.68
2023-03-01T15:08:38.161Z,8.95
2023-03-01T15:11:09.008Z,9.82
2023-03-01T15:13:37.741Z,8.00
2023-03-01T15:16:13.432Z,9.57
2023-03-01T15:18:50.748Z,8.60
2023-03-01T15:21:28.114Z,8.00
2023-03-01T15:23:58.523Z,10.50
2023-03-01T15:26:32.337Z,9.02
2023-03-01T15:29:01.264Z,10.73
2023-03-01T15:31:33.430Z,10.50
2023-03-01T15:34:24.909Z,8.80
2023-03-01T15:36:58.671Z,9.60
2023-03-01T15:39:28.339Z,10.40
2023-03-01T15:41:59.109Z,9.35
2023-03-01T15:44:42.703Z,9.63
2023-03-01T15:47:26.165Z,8.20
2023-03-01T15:49:55.798Z,9.85
2023-03-01T15:52:30.454Z,8.88
2023-03-01T15:55:16.097Z,9.55
2023-03-01T15:57:42.963Z,9.85
2023-03-01T16:00:15.009Z,8.48
2023-03-01T16:02:43.548Z,10.27
2023-03-01T16:05:21.880Z,10.77
2023-03-01T16:07:51.349Z,10.05
2023-03-01T16:10:19.525Z,9.40
2023-03-01T16:12:48.330Z,9.32
2023-03-01T16:15:25.153Z,10.40
2023-03-01T16:17:53.529Z,9.88
2023-03-01T16:20:28.013Z,9.52
2023-03-01T16:22:55.530Z,9.60
2023-03-01T16:25:22.727Z,9.73
2023-03-01T16:27:51.801Z,10.57
2023-03-01T16:30:21.417Z,10.52
2023-03-01T16:32:51.110Z,12.70
2023-03-01T16:35:21.613Z,13.07
2023-03-01T16:37:49.955Z,12.63
2023-03-01T16:40:27.507Z,12.35
2023-03-01T16:42:56.704Z,12.48
2023-03-01T16:45:24.961Z,12.40
2023-03-01T16:47:55.857Z,13.50
2023-03-01T16:50:23.512Z,13.52
2023-03-01T16:52:50.582Z,14.23
2023-03-01T16:55:17.432Z,15.50
2023-03-01T16:57:44.318Z,12.65
2023-03-01T17:00:14.169Z,13.32
2023-03-01T17:02:42.308Z,13.18
2023-03-01T17:05:13.259Z,15.40
2023-03-01T17:07:40.656Z,17.75
2023-03-01T17:10:12.604Z,23.60
2023-03-01T17:12:39.583Z,23.15
2023-03-01T17:15:07.792Z,24.88
2023-03-01T17:17:40.233Z,24.77
2023-03-01T17:20:07.696Z,25.90
2023-03-01T17:22:34.620Z,24.20
2023-03-01T17:25:01.791Z,23.98
2023-03-01T17:27:30.821Z,23.65
2023-03-01T17:29:57.817Z,23.73
2023-03-01T17:32:25.103Z,23.90
2023-03-01T17:34:53.480Z,23.63
2023-03-01T17:37:20.848Z,21.00
2023-03-01T17:39:47.768Z,23.42
2023-03-01T17:42:14.954Z,21.73
2023-03-01T17:44:42.925Z,23.45
2023-03-01T17:47:10.945Z,22.80
2023-03-01T17:49:38.116Z,22.08
2023-03-01T17:52:06.436Z,22.30
2023-03-01T17:54:34.318Z,19.52
2023-03-01T17:57:02.379Z,19.92
2023-03-01T17:59:31.948Z,22.48
2023-03-01T18:02:01.369Z,20.98
2023-03-01T18:07:04.583Z,20.77
2023-03-01T18:09:31.407Z,20.83
2023-03-01T18:11:59.186Z,21.60
2023-03-01T18:14:30.088Z,20.08
2023-03-01T18:16:56.944Z,19.38
2023-03-01T18:19:24.154Z,19.88
2023-03-01T18:21:51.952Z,19.95
2023-03-01T18:24:18.721Z,19.38
2023-03-01T18:26:45.563Z,22.23
2023-03-01T18:29:12.914Z,20.38
2023-03-01T18:31:40.563Z,20.92
2023-03-01T18:34:07.420Z,22.10
2023-03-01T18:36:36.004Z,20.58
2023-03-01T18:39:11.999Z,21.27
2023-03-01T18:41:38.760Z,24.42
2023-03-01T18:44:06.590Z,18.92
2023-03-01T18:49:25.821Z,22.52
2023-03-01T18:51:53.395Z,19.23
2023-03-01T18:54:23.669Z,21.35
2023-03-01T18:56:51.554Z,17.80
2023-03-01T18:59:18.726Z,19.70
2023-03-01T19:01:51.620Z,20.10
2023-03-01T19:04:18.600Z,20.90
2023-03-01T19:06:46.605Z,20.05
2023-03-01T19:17:21.890Z,20.88
2023-03-01T19:19:50.546Z,20.20
2023-03-01T19:22:17.774Z,20.95
2023-03-01T19:24:44.634Z,19.73
2023-03-01T19:29:47.892Z,22.27
2023-03-01T19:40:20.373Z,22.25
2023-03-01T20:20:28.613Z,25.85
2023-03-01T20:22:55.377Z,24.42
2023-03-01T20:27:52.323Z,25.05
2023-03-01T20:30:41.945Z,24.95
2023-03-01T20:33:10.671Z,27.83
2023-03-01T20:38:19.859Z,26.15
2023-03-01T20:46:15.619Z,23.52
2023-03-01T20:48:43.215Z,25.33
2023-03-01T20:51:15.231Z,27.05
2023-03-01T20:53:42.431Z,27.08
2023-03-01T20:56:12.366Z,26.42
2023-03-01T20:58:39.618Z,27.55
2023-03-01T21:01:09.560Z,26.83
2023-03-01T21:03:38.801Z,28.33
2023-03-01T21:06:08.791Z,27.77
2023-03-01T21:08:36.769Z,29.63
2023-03-01T21:11:06.466Z,30.55
2023-03-01T21:13:35.834Z,31.55
2023-03-01T21:16:08.088Z,30.73
2023-03-01T21:18:36.943Z,33.35
2023-03-01T21:21:10.777Z,30.17
2023-03-01T21:23:39.155Z,29.95
2023-03-01T21:26:10.282Z,32.65
2023-03-01T21:28:38.495Z,32.65
2023-03-01T21:31:09.304Z,46.03
2023-03-01T21:33:37.334Z,44.95
2023-03-01T21:36:10.870Z,37.63
2023-03-01T21:38:40.349Z,36.88
2023-03-01T21:41:09.468Z,41.42
2023-03-01T21:43:39.709Z,47.70
2023-03-01T21:46:10.656Z,56.80
2023-03-01T21:48:41.118Z,45.25
2023-03-01T21:51:08.527Z,50.70
2023-03-01T21:53:39.677Z,56.42
2023-03-01T21:56:09.821Z,57.08
2023-03-01T21:58:39.282Z,54.95
2023-03-01T22:01:10.015Z,56.83
2023-03-01T22:03:45.579Z,55.78
2023-03-01T22:06:19.549Z,58.20
2023-03-01T22:08:54.115Z,56.08
2023-03-01T22:11:22.454Z,52.65
2023-03-01T22:13:52.250Z,53.03
2023-03-01T22:16:22.281Z,50.42
2023-03-01T22:18:49.855Z,50.15
2023-03-01T22:21:17.350Z,48.80
2023-03-01T22:23:44.233Z,44.17
2023-03-01T22:26:26.421Z,38.08
2023-03-01T22:28:55.606Z,39.03
2023-03-01T22:31:22.614Z,42.20
2023-03-01T22:33:50.772Z,45.17
2023-03-01T22:36:19.121Z,44.75
2023-03-01T22:38:46.080Z,46.45
2023-03-01T22:41:13.337Z,43.65
2023-03-01T22:43:40.492Z,45.88
2023-03-01T22:46:19.292Z,47.42
2023-03-01T22:48:47.869Z,45.88
2023-03-01T22:51:26.588Z,45.25
2023-03-01T22:53:53.834Z,47.92
2023-03-01T22:56:28.895Z,41.03
2023-03-01T22:58:57.249Z,44.63
2023-03-01T23:01:25.496Z,47.20
2023-03-01T23:03:52.673Z,45.70
2023-03-01T23:06:20.798Z,49.78
2023-03-01T23:08:56.195Z,48.50
2023-03-01T23:11:24.595Z,46.78
2023-03-01T23:13:51.628Z,46.88
2023-03-01T23:16:19.156Z,45.47
2023-03-01T23:18:46.639Z,45.72
2023-03-01T23:21:19.062Z,47.28
2023-03-01T23:23:47.775Z,46.85
2023-03-01T23:26:16.965Z,43.65
2023-03-01T23:28:45.265Z,45.97
2023-03-01T23:31:14.795Z,48.38
2023-03-01T23:33:44.501Z,45.78
2023-03-01T23:36:25.021Z,49.47
2023-03-01T23:38:55.461Z,48.30
2023-03-01T23:41:24.920Z,50.42
2023-03-01T23:43:54.948Z,56.97
2023-03-01T23:46:24.740Z,58.00
2023-03-01T23:48:51.978Z,58.40
2023-03-01T23:51:19.425Z,58.65
2023-03-01T23:53:58.173Z,64.00
2023-03-01T23:56:28.526Z,57.58
2023-03-01T23:58:57.362Z,59.53
